LATI Airport Information

Runway Information
Runway 18 Length 8971 ft width 148 ft
Elevation 109 ft Threshold 0 ft Heading 174
Runway 36 Length 8971 ft Width 148 ft
Elevation 126 ft Threshold 0 ft Heading 354
Airport Frequencies
Type ACC Name ACC Frequency 127.5 MHZ
Type APP Name APP Frequency 133.15 MHZ
Type TWR Name TWR Frequency 122.5 MHZ
Airport Navaids
Type NDB Name Tirana Frequency 290 KHZ
Type VOR-DME Name Tirana Frequency 117700 KHZ
Airport Weather Information & NOTAM
ADDS - METARS form results

(1101 UTC 31 October 2020)
Data provider http://aviationweather.gov/metar/data/
 
METAR text: LATI 311050Z VRB02KT CAVOK 20/10 Q1022 NOSIG
Conditions at: LATI (TIRANA , AL) observed 1050 UTC 31 October 2020
Temperature: 20.0°C (68°F)
Dewpoint: 10.0°C (50°F) [RH = 53%]
Pressure (altimeter): 30.18 inches Hg (1022.0 mb)
Winds: variable direction winds at 2 MPH (2 knots; 1.0 m/s)
Visibility: 6 or more miles (10+ km)
Ceiling: ceiling and visibility are OK
Clouds: unknown
Weather: no significant weather observed at this time

METAR text: LATI 311020Z VRB02KT CAVOK 20/10 Q1022 NOSIG
Conditions at: LATI (TIRANA , AL) observed 1020 UTC 31 October 2020
Temperature: 20.0°C (68°F)
Dewpoint: 10.0°C (50°F) [RH = 53%]
Pressure (altimeter): 30.18 inches Hg (1022.0 mb)
Winds: variable direction winds at 2 MPH (2 knots; 1.0 m/s)
Visibility: 6 or more miles (10+ km)
Ceiling: ceiling and visibility are OK
Clouds: unknown
Weather: no significant weather observed at this time

Forecast for: LATI (TIRANA , AL)
Text: TAF LATI 310500Z 3106/0106 VRB04KT CAVOK TX22/3112Z TN07/0105Z
Forecast period: 0600 UTC 31 October 2020 to 0600 UTC 01 November 2020
Forecast type: FROM: standard forecast or significant change
Winds: variable direction winds at 5 MPH (4 knots; 2.1 m/s)
Visibility: 6 or more miles (10+ km)
Ceiling: unknown
Clouds: missing
Weather: no significant weather forecast for this period